Time;durP1;ratioP1;P1;durP2;ratioP2;P2;SDS_P1;SDS_P2;PMS_P1;PMS_P2;Temp;Humidity;BMP_temperature;BMP_pressure;BME280_temperature;BME280_humidity;BME280_pressure;Samples;Min_cycle;Max_cycle;Signal;HPM_P1;HPM_P2
2022/05/09 00:02:12;;;;;;;10.68;4.22;;;;;;;20.17;44.73;99223.37;4473020;32;20085;-82
2022/05/09 00:04:38;;;;;;;9.35;3.83;;;;;;;20.19;44.51;99219.56;4472834;32;20127;-82
2022/05/09 00:07:04;;;;;;;11.40;4.05;;;;;;;20.18;44.54;99225.88;4487152;32;20114;-82
2022/05/09 00:09:30;;;;;;;9.13;4.05;;;;;;;20.19;44.67;99224.09;4487262;32;20383;-82
2022/05/09 00:11:55;;;;;;;9.07;3.80;;;;;;;20.13;44.85;99222.78;4487104;32;20088;-82
2022/05/09 00:14:21;;;;;;;9.32;3.65;;;;;;;20.12;44.75;99221.09;4487058;32;20093;-82
2022/05/09 00:16:46;;;;;;;9.40;4.22;;;;;;;20.11;44.75;99226.56;4472927;32;20399;-82
2022/05/09 00:19:17;;;;;;;9.95;3.83;;;;;;;20.08;44.73;99221.50;4486372;32;20115;-82
2022/05/09 00:21:43;;;;;;;10.57;4.15;;;;;;;20.03;44.64;99221.91;4487183;32;20099;-82
2022/05/09 00:24:12;;;;;;;9.32;3.90;;;;;;;20.08;44.44;99216.16;4487013;32;20145;-82
2022/05/09 00:26:38;;;;;;;10.27;3.90;;;;;;;20.00;44.42;99217.66;4460042;32;20142;-82
2022/05/09 00:29:04;;;;;;;8.60;3.62;;;;;;;19.99;44.39;99221.31;4472631;32;20177;-82
2022/05/09 00:31:30;;;;;;;10.68;3.90;;;;;;;19.96;44.37;99220.72;4472624;32;20345;-82
2022/05/09 00:33:56;;;;;;;9.48;4.20;;;;;;;19.97;44.13;99217.94;4486612;32;20123;-82
2022/05/09 00:36:22;;;;;;;9.82;4.12;;;;;;;19.99;43.92;99217.78;4486383;32;20114;-80
2022/05/09 00:38:49;;;;;;;9.65;3.42;;;;;;;19.94;43.90;99217.34;4472359;32;20420;-82
2022/05/09 00:44:05;;;;;;;9.60;3.55;;;;;;;20.03;43.78;99221.91;4486652;32;20135;-81
2022/05/09 00:46:30;;;;;;;10.00;3.80;;;;;;;19.89;43.79;99225.75;4459248;32;20188;-82
2022/05/09 00:49:17;;;;;;;9.40;3.70;;;;;;;19.93;43.63;99227.19;4472276;32;20087;-82
2022/05/09 00:51:48;;;;;;;9.35;3.92;;;;;;;19.90;43.73;99223.94;4486429;32;20099;-81
2022/05/09 00:54:14;;;;;;;9.15;3.95;;;;;;;19.84;43.87;99225.31;4486392;32;20100;-82
2022/05/09 00:56:49;;;;;;;9.60;4.12;;;;;;;19.82;43.77;99220.09;4486324;32;20096;-82
2022/05/09 00:59:16;;;;;;;8.90;3.78;;;;;;;19.81;43.81;99221.06;4472101;32;20115;-81
2022/05/09 01:01:42;;;;;;;8.85;3.97;;;;;;;19.88;43.82;99225.91;4472000;32;20102;-82
2022/05/09 01:04:10;;;;;;;9.20;3.80;;;;;;;19.84;43.82;99228.00;4471922;32;20088;-81
2022/05/09 01:06:37;;;;;;;10.00;3.75;;;;;;;19.85;44.01;99232.34;4486264;32;20440;-82
2022/05/09 01:09:04;;;;;;;9.60;3.85;;;;;;;19.79;44.06;99232.88;4486047;32;20581;-82
2022/05/09 01:11:30;;;;;;;9.65;4.03;;;;;;;19.82;43.94;99232.63;4486118;32;20084;-83
2022/05/09 01:14:03;;;;;;;9.05;4.12;;;;;;;19.77;43.95;99237.50;4471721;32;20475;-83
2022/05/09 01:16:28;;;;;;;10.35;3.90;;;;;;;19.80;44.15;99232.75;4486413;32;20100;-83
2022/05/09 01:18:57;;;;;;;8.93;4.00;;;;;;;19.81;44.03;99231.75;4486162;32;20100;-83
2022/05/09 01:21:30;;;;;;;8.70;3.55;;;;;;;19.80;43.98;99238.09;4486099;32;20430;-83
2022/05/09 01:23:56;;;;;;;9.63;3.75;;;;;;;19.79;44.17;99239.06;4485909;32;20096;-83
2022/05/09 01:26:22;;;;;;;10.02;4.18;;;;;;;19.76;44.26;99233.13;4471835;32;20109;-83
2022/05/09 01:28:47;;;;;;;9.18;4.10;;;;;;;19.74;44.34;99237.75;4471624;32;20085;-83
2022/05/09 01:31:16;;;;;;;10.57;4.47;;;;;;;19.72;44.26;99239.72;4486378;32;20129;-83
2022/05/09 01:33:46;;;;;;;8.43;3.58;;;;;;;19.59;44.11;99242.56;4488060;32;20132;-82
2022/05/09 01:36:18;;;;;;;9.75;4.07;;;;;;;19.70;44.04;99245.19;4488117;32;20123;-82
2022/05/09 01:39:06;;;;;;;8.73;3.92;;;;;;;19.69;44.04;99246.16;4473734;32;20092;-82
2022/05/09 01:41:40;;;;;;;9.90;4.00;;;;;;;19.70;44.10;99244.31;4487910;32;20450;-82
2022/05/09 01:44:07;;;;;;;9.68;3.80;;;;;;;19.72;44.29;99245.06;4473757;32;20100;-82
2022/05/09 01:46:33;;;;;;;10.02;4.40;;;;;;;19.69;44.32;99240.81;4487919;32;20115;-82
2022/05/09 01:51:45;;;;;;;8.45;3.58;;;;;;;19.70;44.49;99249.66;4487914;32;20187;-82
2022/05/09 01:54:11;;;;;;;9.90;3.92;;;;;;;19.60;44.64;99246.94;4473788;32;20161;-82
2022/05/09 01:56:39;;;;;;;10.65;3.90;;;;;;;19.68;44.54;99243.59;4487951;32;20101;-82
2022/05/09 01:59:06;;;;;;;;;;;;;;;19.60;44.62;99245.09;4488222;32;20375;-82
2022/05/09 02:01:37;;;;;;;9.43;3.80;;;;;;;19.64;44.32;99238.53;4487841;32;20304;-82
2022/05/09 02:04:03;;;;;;;9.85;3.87;;;;;;;19.61;44.32;99240.63;4473631;32;20202;-82
2022/05/09 02:06:28;;;;;;;9.63;3.87;;;;;;;19.62;44.45;99244.97;4473623;32;20101;-83
2022/05/09 02:08:53;;;;;;;10.68;3.92;;;;;;;19.64;44.61;99237.66;4487685;32;20482;-82
2022/05/09 02:11:19;;;;;;;10.00;3.87;;;;;;;19.59;44.69;99235.41;4487754;32;20432;-82
2022/05/09 02:13:45;;;;;;;11.32;3.72;;;;;;;19.55;44.91;99238.47;4487689;32;20107;-82
2022/05/09 02:16:11;;;;;;;10.30;3.85;;;;;;;19.52;44.83;99236.88;4473577;32;20152;-81
2022/05/09 02:18:36;;;;;;;9.52;4.12;;;;;;;19.51;44.92;99237.88;4460751;32;20091;-81
2022/05/09 02:21:03;;;;;;;9.50;3.92;;;;;;;19.49;45.04;99237.16;4487894;32;20114;-81
2022/05/09 02:23:28;;;;;;;9.30;3.80;;;;;;;19.43;44.75;99241.19;4487926;32;20116;-82
2022/05/09 02:25:53;;;;;;;9.30;3.67;;;;;;;19.47;44.70;99238.25;4487942;32;20088;-81
2022/05/09 02:28:21;;;;;;;9.35;4.30;;;;;;;19.51;44.61;99242.34;4473590;32;20088;-82
2022/05/09 02:30:47;;;;;;;10.15;4.45;;;;;;;19.47;44.76;99246.25;4487935;32;20133;-82
2022/05/09 02:33:13;;;;;;;9.68;3.87;;;;;;;19.48;44.71;99234.62;4473595;32;20097;-82
2022/05/09 02:35:39;;;;;;;8.55;3.28;;;;;;;19.50;44.55;99241.50;4487710;32;20452;-82
2022/05/09 02:38:05;;;;;;;10.60;4.00;;;;;;;18.96;44.95;99248.66;4473401;32;20114;-82
2022/05/09 02:40:33;;;;;;;9.07;3.65;;;;;;;19.32;44.09;99251.94;4487737;32;20144;-82
2022/05/09 02:42:58;;;;;;;;;;;;;;;19.47;44.38;99244.47;4488047;32;20116;-83
2022/05/09 02:45:24;;;;;;;9.27;3.80;;;;;;;19.56;44.65;99254.34;4487773;32;19984;-83
2022/05/09 02:47:50;;;;;;;8.88;3.78;;;;;;;19.56;44.88;99253.50;4473461;32;20092;-84
2022/05/09 02:50:16;;;;;;;8.52;3.62;;;;;;;19.56;44.83;99248.16;4473525;32;20080;-84
2022/05/09 02:52:42;;;;;;;9.95;4.15;;;;;;;19.53;44.75;99254.63;4487514;32;20357;-84
2022/05/09 02:55:09;;;;;;;9.57;3.75;;;;;;;19.58;44.49;99254.22;4487629;32;20088;-84
2022/05/09 02:57:35;;;;;;;8.73;3.87;;;;;;;19.57;44.33;99257.91;4473499;32;20088;-83
2022/05/09 03:00:01;;;;;;;10.68;3.67;;;;;;;19.48;44.14;99253.31;4473331;32;20240;-83
2022/05/09 03:02:27;;;;;;;9.45;3.70;;;;;;;19.62;44.11;99258.34;4487656;32;20091;-83
2022/05/09 03:04:52;;;;;;;9.55;3.85;;;;;;;19.62;44.23;99258.34;4487725;32;20088;-83
2022/05/09 03:07:19;;;;;;;9.48;3.55;;;;;;;19.64;44.18;99259.91;4487642;32;20144;-83
2022/05/09 03:09:49;;;;;;;9.50;3.78;;;;;;;19.72;44.23;99263.78;4473108;32;20146;-83
2022/05/09 03:12:14;;;;;;;8.73;3.60;;;;;;;19.67;44.25;99260.63;4487295;32;20108;-83
2022/05/09 03:14:40;;;;;;;10.57;3.92;;;;;;;19.75;44.20;99252.84;4473259;32;20170;-83
2022/05/09 03:17:07;;;;;;;9.35;4.20;;;;;;;19.79;44.15;99257.78;4473094;32;20341;-84
2022/05/09 03:19:33;;;;;;;9.70;3.80;;;;;;;19.76;44.35;99258.06;4472942;32;20096;-84
2022/05/09 03:21:59;;;;;;;8.40;3.42;;;;;;;19.77;44.41;99257.06;4487322;32;20093;-83
2022/05/09 03:24:24;;;;;;;11.95;3.80;;;;;;;19.79;44.33;99260.44;4487224;32;20093;-83
2022/05/09 03:26:50;;;;;;;8.55;3.55;;;;;;;19.82;44.16;99259.38;4473380;32;20110;-83
2022/05/09 03:29:18;;;;;;;9.57;3.95;;;;;;;19.82;43.93;99260.19;4472950;32;20084;-84
2022/05/09 03:31:46;;;;;;;8.27;3.50;;;;;;;19.83;43.79;99264.56;4487144;32;20227;-84
2022/05/09 03:34:12;;;;;;;8.68;3.62;;;;;;;19.93;43.49;99261.94;4487665;32;20177;-84
2022/05/09 03:36:37;;;;;;;8.80;3.47;;;;;;;20.06;43.42;99269.75;4487251;32;20100;-84
2022/05/09 03:39:03;;;;;;;8.23;3.42;;;;;;;20.05;43.53;99270.75;4487613;32;20110;-83
2022/05/09 03:41:28;;;;;;;10.10;3.80;;;;;;;20.19;42.77;99266.88;4472797;32;20100;-83
2022/05/09 03:43:53;;;;;;;9.82;3.42;;;;;;;20.16;42.29;99276.00;4487186;32;20440;-82
2022/05/09 03:46:19;;;;;;;7.95;3.30;;;;;;;20.17;42.30;99269.69;4486971;32;20102;-82
2022/05/09 03:48:44;;;;;;;8.82;3.53;;;;;;;20.20;41.67;99280.12;4487110;32;20356;-83
2022/05/09 03:51:10;;;;;;;8.68;3.53;;;;;;;20.28;41.89;99278.59;4487058;32;20123;-82
2022/05/09 03:53:36;;;;;;;9.15;3.50;;;;;;;20.36;41.51;99278.78;4486241;32;20114;-82
2022/05/09 03:56:01;;;;;;;8.60;3.35;;;;;;;20.58;41.45;99283.09;4472793;32;20081;-83
2022/05/09 03:58:27;;;;;;;9.50;3.75;;;;;;;20.73;41.43;99281.78;4472779;32;20563;-83
2022/05/09 04:00:52;;;;;;;8.45;3.30;;;;;;;20.93;41.34;99281.81;4472620;32;20423;-83
2022/05/09 04:03:19;;;;;;;8.20;3.30;;;;;;;21.05;40.78;99290.56;4487038;32;20566;-82
2022/05/09 04:05:44;;;;;;;10.60;3.35;;;;;;;21.21;40.53;99288.22;4472767;32;20599;-82
2022/05/09 04:08:12;;;;;;;9.05;3.40;;;;;;;21.25;40.37;99286.94;4472660;32;20076;-82
2022/05/09 04:10:40;;;;;;;10.10;3.17;;;;;;;21.38;39.82;99287.53;4472668;32;20130;-82
2022/05/09 04:13:06;;;;;;;7.95;3.30;;;;;;;21.56;39.83;99273.44;4472809;32;20105;-82
2022/05/09 04:18:17;;;;;;;8.27;3.42;;;;;;;21.71;39.39;99289.91;4474773;32;20291;-82
2022/05/09 04:20:43;;;;;;;7.30;2.95;;;;;;;21.95;38.13;99284.94;4472614;32;20160;-82
2022/05/09 04:23:09;;;;;;;7.57;3.00;;;;;;;21.97;37.74;99279.44;4486791;32;20100;-82
2022/05/09 04:25:35;;;;;;;7.10;2.92;;;;;;;22.14;38.05;99284.06;4472302;32;20470;-82
2022/05/09 04:28:03;;;;;;;7.95;2.97;;;;;;;21.85;37.87;99288.66;4486804;32;20478;-82
2022/05/09 04:30:30;;;;;;;7.45;3.05;;;;;;;22.22;37.23;99287.88;4459635;32;20487;-83
2022/05/09 04:32:56;;;;;;;7.25;2.90;;;;;;;22.24;37.96;99296.62;4486933;32;20139;-82
2022/05/09 04:35:22;;;;;;;8.70;3.22;;;;;;;22.20;37.71;99290.69;4486917;32;20092;-83
2022/05/09 04:37:49;;;;;;;8.05;3.17;;;;;;;22.41;37.66;99292.31;4486427;32;20141;-81
2022/05/09 04:40:19;;;;;;;9.50;3.15;;;;;;;22.48;37.38;99298.81;4472201;32;20173;-81
2022/05/09 04:42:45;;;;;;;9.27;3.55;;;;;;;22.38;37.64;99298.84;4486611;32;20504;-81
2022/05/09 04:45:14;;;;;;;8.57;3.28;;;;;;;22.44;38.28;99297.41;4472299;32;20081;-82
2022/05/09 04:47:40;;;;;;;10.30;4.15;;;;;;;22.41;38.21;99297.69;4459101;32;20110;-83
2022/05/09 04:50:07;;;;;;;7.45;2.95;;;;;;;22.53;40.33;99300.06;4486413;32;20111;-82
2022/05/09 04:52:33;;;;;;;8.73;3.03;;;;;;;22.40;37.65;99301.38;4486462;32;20080;-83
2022/05/09 04:54:58;;;;;;;8.60;3.40;;;;;;;22.30;38.58;99306.78;4486312;32;20159;-83
2022/05/09 04:57:23;;;;;;;8.32;3.53;;;;;;;22.42;39.43;99310.13;4472023;32;20144;-83
2022/05/09 04:59:49;;;;;;;7.57;2.97;;;;;;;22.40;38.94;99304.06;4486208;32;20088;-83
2022/05/09 05:02:15;;;;;;;8.27;3.35;;;;;;;22.40;38.12;99310.28;4486269;32;20114;-82
2022/05/09 05:04:42;;;;;;;8.23;2.97;;;;;;;22.14;37.37;99300.16;4486311;32;20076;-83
2022/05/09 05:07:07;;;;;;;7.65;3.45;;;;;;;22.19;37.89;99305.09;4488228;32;20464;-83
2022/05/09 05:09:33;;;;;;;8.15;3.33;;;;;;;22.09;38.76;99305.09;4473842;32;20140;-83
2022/05/09 05:11:58;;;;;;;9.13;3.37;;;;;;;21.97;39.02;99306.28;4488268;32;20412;-82
2022/05/09 05:14:23;;;;;;;9.07;3.58;;;;;;;22.16;38.66;99314.28;4488218;32;20391;-82
2022/05/09 05:17:01;;;;;;;9.02;3.53;;;;;;;22.24;39.43;99308.19;4488119;32;20103;-82
2022/05/09 05:19:28;;;;;;;8.05;3.40;;;;;;;22.36;39.60;99314.25;4475241;32;20084;-83
2022/05/09 05:21:53;;;;;;;7.85;3.50;;;;;;;22.20;39.09;99312.16;4488210;32;20157;-83
2022/05/09 05:24:19;;;;;;;7.75;3.15;;;;;;;22.24;38.76;99318.91;4488030;32;20088;-82
2022/05/09 05:26:44;;;;;;;7.47;3.17;;;;;;;22.29;38.85;99313.13;4488277;32;20084;-81
2022/05/09 05:29:10;;;;;;;8.82;3.50;;;;;;;22.25;38.91;99323.34;4488257;32;20092;-82
2022/05/09 05:31:35;;;;;;;8.02;3.00;;;;;;;22.43;39.22;99323.41;4488331;32;20399;-83
2022/05/09 05:34:01;;;;;;;8.85;3.22;;;;;;;22.35;37.19;99323.31;4488257;32;20144;-82
2022/05/09 05:36:27;;;;;;;7.68;3.25;;;;;;;22.67;38.53;99324.75;4488080;32;20111;-82
2022/05/09 05:38:52;;;;;;;8.82;3.15;;;;;;;22.77;37.55;99326.41;4474059;32;20357;-82
2022/05/09 05:41:19;;;;;;;7.60;2.87;;;;;;;22.93;36.49;99325.75;4473833;32;20092;-83
2022/05/09 05:43:44;;;;;;;9.43;3.05;;;;;;;22.90;35.60;99333.25;4488192;32;20209;-82
2022/05/09 05:46:11;;;;;;;9.70;3.30;;;;;;;23.07;35.13;99329.78;4487883;32;20421;-82
2022/05/09 05:48:37;;;;;;;7.72;2.95;;;;;;;23.03;35.53;99328.41;4487945;32;20442;-82
2022/05/09 05:51:02;;;;;;;7.65;3.05;;;;;;;23.14;35.71;99324.66;4487955;32;20119;-81
2022/05/09 05:53:28;;;;;;;10.00;3.28;;;;;;;23.06;36.53;99329.94;4487957;32;20088;-82
2022/05/09 05:55:53;;;;;;;8.05;3.35;;;;;;;23.27;36.52;99337.72;4473579;32;20093;-81
2022/05/09 05:58:19;;;;;;;8.93;3.30;;;;;;;23.35;35.34;99335.12;4487841;32;20349;-83
2022/05/09 06:00:44;;;;;;;9.02;3.20;;;;;;;23.45;35.42;99332.38;4478208;32;20088;-88
2022/05/09 06:03:10;;;;;;;8.50;3.12;;;;;;;23.48;36.64;99340.97;4463808;32;20105;-88
2022/05/09 06:05:36;;;;;;;8.57;3.47;;;;;;;23.65;35.03;99338.47;4476090;32;20114;-88
2022/05/09 06:08:01;;;;;;;9.55;3.17;;;;;;;23.80;35.25;99345.00;4468671;32;20203;-88
2022/05/09 06:10:30;;;;;;;8.85;3.40;;;;;;;23.79;34.54;99342.47;4472783;32;20130;-87
2022/05/09 06:12:56;;;;;;;7.82;3.33;;;;;;;23.90;34.75;99353.00;4466579;32;20084;-85
2022/05/09 06:15:33;;;;;;;8.80;3.30;;;;;;;24.07;35.49;99348.59;4478281;32;20099;-90
2022/05/09 06:18:01;;;;;;;9.53;3.37;;;;;;;24.22;34.91;99349.72;4478932;32;20092;-91
2022/05/09 06:20:31;;;;;;;8.40;3.17;;;;;;;24.28;34.39;99358.97;4472846;32;20169;-87
2022/05/09 06:22:59;;;;;;;10.15;3.85;;;;;;;23.71;35.26;99353.97;4480420;32;20513;-86
2022/05/09 06:25:25;;;;;;;;;;;;;;;23.99;35.04;99352.06;4464874;32;20108;-91
2022/05/09 06:27:50;;;;;;;9.52;3.00;;;;;;;24.28;34.14;99354.47;4460357;32;19994;-91
2022/05/09 06:30:17;;;;;;;8.05;3.40;;;;;;;24.34;34.75;99350.31;4483004;32;20084;-91
2022/05/09 06:32:43;;;;;;;9.32;3.53;;;;;;;24.32;34.32;99360.37;4460066;32;20114;-84
2022/05/09 06:35:14;;;;;;;10.25;3.30;;;;;;;24.57;34.13;99363.25;4464452;32;20405;-90
2022/05/09 06:37:40;;;;;;;8.65;3.70;;;;;;;24.67;33.93;99359.44;4480297;32;20122;-90
2022/05/09 06:40:07;;;;;;;7.90;3.42;;;;;;;24.83;34.72;99363.22;4458191;32;20127;-89
2022/05/09 06:42:33;;;;;;;10.95;3.87;;;;;;;24.91;33.91;99361.37;4482842;32;20123;-90
2022/05/09 06:44:59;;;;;;;9.23;3.33;;;;;;;24.85;33.99;99363.91;4466611;32;20089;-90
2022/05/09 06:47:24;;;;;;;11.10;3.75;;;;;;;25.19;33.59;99358.47;4487773;32;20115;-86
2022/05/09 06:49:49;;;;;;;9.45;3.85;;;;;;;25.21;33.38;99363.72;4487471;32;20092;-80
2022/05/09 06:52:15;;;;;;;9.27;3.62;;;;;;;25.27;34.25;99369.31;4487493;32;20107;-82
2022/05/09 06:54:40;;;;;;;10.38;4.15;;;;;;;25.46;32.94;99376.28;4487152;32;20076;-82
2022/05/09 06:57:06;;;;;;;8.93;3.83;;;;;;;25.53;32.82;99367.53;4487506;32;20428;-82
2022/05/09 06:59:32;;;;;;;10.07;4.03;;;;;;;25.64;33.33;99364.50;4487401;32;20088;-82
2022/05/09 07:01:58;;;;;;;12.27;3.95;;;;;;;25.61;32.95;99363.00;4473143;32;20080;-82
2022/05/09 07:04:24;;;;;;;9.40;3.67;;;;;;;25.43;32.94;99363.13;4473348;32;20072;-82
2022/05/09 07:06:49;;;;;;;10.43;3.85;;;;;;;25.69;33.57;99371.09;4487720;32;20084;-81
2022/05/09 07:09:15;;;;;;;9.75;4.00;;;;;;;25.73;33.18;99370.75;4487547;32;20109;-80
2022/05/09 07:11:41;;;;;;;12.25;4.07;;;;;;;25.66;32.98;99366.03;4487597;32;20151;-79
2022/05/09 07:14:07;;;;;;;9.68;3.50;;;;;;;25.73;33.37;99376.16;4473084;32;20080;-81
2022/05/09 07:16:32;;;;;;;10.85;3.83;;;;;;;25.80;33.86;99379.88;4487309;32;20084;-81
2022/05/09 07:18:58;;;;;;;11.90;3.97;;;;;;;25.73;33.58;99373.44;4487381;32;20104;-81
2022/05/09 07:21:24;;;;;;;12.13;3.80;;;;;;;25.25;34.04;99387.50;4473070;32;20508;-81
2022/05/09 07:23:50;;;;;;;9.35;3.95;;;;;;;25.49;33.67;99378.63;4487286;32;20085;-81
2022/05/09 07:26:15;;;;;;;14.05;5.32;;;;;;;25.45;33.96;99377.28;4487217;32;20093;-81
2022/05/09 07:28:42;;;;;;;8.88;3.97;;;;;;;25.38;33.90;99384.37;4485992;32;20084;-81
2022/05/09 07:31:08;;;;;;;14.00;5.65;;;;;;;25.33;33.75;99386.69;4487343;32;20103;-81
2022/05/09 07:33:34;;;;;;;31.87;6.53;;;;;;;25.37;34.28;99381.81;4473225;32;20453;-79
2022/05/09 07:35:59;;;;;;;10.23;3.87;;;;;;;25.59;34.17;99380.34;4487214;32;20084;-81
2022/05/09 07:38:25;;;;;;;10.98;3.90;;;;;;;25.43;33.53;99389.25;4487048;32;20088;-81
2022/05/09 07:40:51;;;;;;;9.80;4.15;;;;;;;25.40;33.80;99386.88;4472789;32;20317;-81
2022/05/09 07:43:22;;;;;;;10.35;4.10;;;;;;;25.15;34.13;99381.38;4487123;32;20360;-86
2022/05/09 07:45:48;;;;;;;12.73;3.97;;;;;;;25.44;34.44;99383.69;4487401;32;20088;-90
2022/05/09 07:48:14;;;;;;;11.12;3.92;;;;;;;25.47;34.83;99386.06;4487010;32;20150;-84
2022/05/09 07:50:40;;;;;;;10.45;4.12;;;;;;;25.53;34.67;99392.63;4487013;32;20114;-82
2022/05/09 07:53:09;;;;;;;11.85;6.57;;;;;;;25.62;34.59;99390.81;4487037;32;20108;-81
2022/05/09 07:55:34;;;;;;;9.10;4.00;;;;;;;25.63;34.72;99389.78;4484277;32;20160;-78
2022/05/09 07:58:00;;;;;;;11.07;4.80;;;;;;;25.60;34.69;99387.44;4478139;32;20122;-79
2022/05/09 08:00:26;;;;;;;10.90;4.12;;;;;;;25.51;34.46;99387.41;4485736;32;20096;-80
2022/05/09 08:02:51;;;;;;;12.50;3.97;;;;;;;25.31;35.78;99392.25;4471709;32;20451;-80
2022/05/09 08:05:17;;;;;;;9.98;4.07;;;;;;;25.42;35.31;99387.53;4486049;32;20191;-80
2022/05/09 08:07:42;;;;;;;15.75;6.45;;;;;;;25.29;35.61;99396.97;4486074;32;20096;-79
2022/05/09 08:10:09;;;;;;;10.30;4.75;;;;;;;25.44;35.62;99390.91;4485788;32;20092;-80
2022/05/09 08:12:35;;;;;;;11.38;5.32;;;;;;;25.36;34.79;99391.75;4486016;32;20088;-80
2022/05/09 08:15:01;;;;;;;10.52;4.25;;;;;;;25.51;34.72;99386.56;4485910;32;20533;-80
2022/05/09 08:17:26;;;;;;;12.60;4.47;;;;;;;25.41;34.73;99388.56;4486234;32;20110;-81
2022/05/09 08:19:55;;;;;;;11.27;3.97;;;;;;;25.02;35.46;99391.78;4486750;32;20084;-78
2022/05/09 08:22:21;;;;;;;10.07;4.87;;;;;;;25.09;35.49;99395.50;4486433;32;20444;-80
2022/05/09 08:24:47;;;;;;;10.65;4.22;;;;;;;25.15;35.19;99391.31;4485177;32;20131;-80
2022/05/09 08:27:12;;;;;;;10.98;4.28;;;;;;;25.23;35.01;99394.94;4471169;32;20101;-79
2022/05/09 08:29:37;;;;;;;10.20;4.62;;;;;;;24.98;35.54;99390.41;4485325;32;20156;-80
2022/05/09 08:32:03;;;;;;;18.10;10.30;;;;;;;24.83;35.64;99382.94;4486436;32;20128;-80
2022/05/09 08:34:29;;;;;;;9.60;4.78;;;;;;;25.03;35.54;99386.19;4486670;32;20096;-81
2022/05/09 08:36:55;;;;;;;13.70;4.25;;;;;;;25.07;35.66;99386.72;4486400;32;20448;-81
2022/05/09 08:39:22;;;;;;;12.52;4.53;;;;;;;24.92;37.21;99384.66;4486335;32;20503;-81
2022/05/09 08:42:05;;;;;;;11.93;4.60;;;;;;;25.16;37.08;99385.75;4472308;32;20085;-81
2022/05/09 08:44:57;;;;;;;12.63;4.85;;;;;;;24.99;36.49;99384.84;4472419;32;20165;-80
2022/05/09 08:47:50;;;;;;;16.67;7.62;;;;;;;25.18;34.84;99378.34;4472226;32;20152;-81
2022/05/09 08:50:24;;;;;;;10.38;4.28;;;;;;;25.11;36.03;99390.78;4486497;32;20110;-81
2022/05/09 08:52:53;;;;;;;8.35;3.95;;;;;;;25.08;35.89;99389.28;4472238;32;20448;-81
2022/05/09 08:55:38;;;;;;;19.58;6.15;;;;;;;25.02;36.81;99392.63;4472343;32;20424;-80
2022/05/09 08:58:37;;;;;;;10.10;4.30;;;;;;;24.98;37.36;99388.56;4472608;32;20096;-80
2022/05/09 09:01:09;;;;;;;12.63;4.93;;;;;;;25.08;35.94;99385.75;4486498;32;20092;-80
2022/05/09 09:03:39;;;;;;;15.30;6.55;;;;;;;24.76;36.76;99384.56;4472193;32;20084;-80
2022/05/09 09:06:31;;;;;;;14.95;6.55;;;;;;;25.17;36.43;99390.16;4472583;32;20104;-80
2022/05/09 09:09:05;;;;;;;19.35;6.57;;;;;;;25.26;36.07;99391.87;4486239;32;20619;-81
2022/05/09 09:12:12;;;;;;;17.15;5.30;;;;;;;25.46;35.89;99391.63;4486079;32;20481;-81
2022/05/09 09:15:00;;;;;;;25.37;8.10;;;;;;;25.58;34.84;99390.31;4484511;32;20077;-80
2022/05/09 09:17:40;;;;;;;13.05;6.32;;;;;;;25.84;34.33;99394.72;4486285;32;20440;-81
2022/05/09 09:20:14;;;;;;;23.48;7.60;;;;;;;25.94;33.73;99395.44;4486015;32;20126;-81
2022/05/09 09:22:51;;;;;;;9.65;4.65;;;;;;;25.99;34.06;99392.25;4471700;32;20110;-81
2022/05/09 09:25:23;;;;;;;13.70;4.47;;;;;;;26.15;33.77;99389.53;4471730;32;20168;-81
2022/05/09 09:28:13;;;;;;;19.10;5.00;;;;;;;26.25;33.74;99390.22;4485832;32;20092;-81
2022/05/09 09:30:39;;;;;;;12.85;5.82;;;;;;;26.22;34.00;99395.09;4462406;32;20164;-81
2022/05/09 09:33:09;;;;;;;11.63;5.95;;;;;;;26.34;33.03;99391.03;4471502;32;20111;-81
2022/05/09 09:35:53;;;;;;;11.73;5.70;;;;;;;26.25;33.02;99390.22;4471636;32;20092;-80
2022/05/09 09:38:54;;;;;;;10.57;4.57;;;;;;;26.50;32.87;99384.75;4471431;32;20135;-81
2022/05/09 09:41:28;;;;;;;12.90;4.80;;;;;;;26.59;32.09;99385.63;4471894;32;20205;-80
2022/05/09 09:44:08;;;;;;;10.35;4.45;;;;;;;26.76;32.22;99384.56;4485779;32;20172;-81
2022/05/09 09:46:34;;;;;;;10.63;4.90;;;;;;;27.00;32.55;99380.09;4471426;32;20124;-81
2022/05/09 09:49:08;;;;;;;12.67;5.50;;;;;;;27.08;31.27;99377.34;4485590;32;20104;-81
2022/05/09 09:51:53;;;;;;;9.88;4.70;;;;;;;27.19;31.77;99382.34;4471343;32;20095;-81
2022/05/09 09:54:25;;;;;;;10.70;4.53;;;;;;;26.98;30.37;99372.12;4487591;32;20111;-82
2022/05/09 09:56:51;;;;;;;9.88;4.70;;;;;;;27.47;30.07;99371.09;4488121;32;20092;-81
2022/05/09 09:59:20;;;;;;;11.45;4.82;;;;;;;27.65;29.70;99376.22;4488040;32;20131;-81
2022/05/09 10:02:25;;;;;;;8.35;4.05;;;;;;;27.27;30.18;99376.09;4487752;32;20153;-82
2022/05/09 10:04:50;;;;;;;9.60;4.20;;;;;;;27.40;30.11;99368.25;4471045;32;20088;-81
2022/05/09 10:07:31;;;;;;;12.82;4.30;;;;;;;26.80;31.17;99374.25;4467980;32;20129;-81
2022/05/09 10:10:10;;;;;;;9.45;3.85;;;;;;;26.22;32.30;99381.59;4457975;32;20162;-82
2022/05/09 10:12:36;;;;;;;8.98;4.00;;;;;;;25.69;33.39;99379.19;4457939;32;20520;-81
2022/05/09 10:15:35;;;;;;;13.45;4.03;;;;;;;25.81;33.66;99377.00;4457975;32;20152;-81
2022/05/09 10:18:16;;;;;;;10.55;4.10;;;;;;;25.47;33.41;99383.34;4471912;32;20388;-81
2022/05/09 10:20:42;;;;;;;11.20;4.30;;;;;;;26.07;31.86;99382.25;4472276;32;20088;-82
2022/05/09 10:26:27;;;;;;;10.00;3.60;;;;;;;25.83;31.47;99374.97;4472066;32;20135;-81
2022/05/09 10:28:55;;;;;;;9.77;4.10;;;;;;;25.48;32.47;99373.44;4457945;32;20069;-82
2022/05/09 10:31:30;;;;;;;11.80;3.70;;;;;;;25.68;32.87;99374.78;4457715;32;20151;-84
2022/05/09 10:34:10;;;;;;;11.27;3.95;;;;;;;25.98;32.75;99369.81;4457823;32;20100;-85
2022/05/09 10:36:56;;;;;;;10.75;3.92;;;;;;;25.98;31.83;99371.62;4444769;32;20081;-85
2022/05/09 10:39:28;;;;;;;13.73;4.50;;;;;;;26.09;33.24;99363.19;4457744;32;20081;-91
2022/05/09 10:41:58;;;;;;;13.05;4.60;;;;;;;26.23;34.61;99364.38;4457905;32;20565;-94
2022/05/09 10:44:32;;;;;;;12.13;4.55;;;;;;;26.39;34.25;99361.66;4471827;32;20140;-92
2022/05/09 10:47:06;;;;;;;11.05;4.35;;;;;;;26.47;34.43;99364.34;4472011;32;20454;-92
2022/05/09 10:50:00;;;;;;;9.25;4.00;;;;;;;26.78;33.79;99350.09;4456630;32;20073;-87
2022/05/09 10:52:41;;;;;;;8.82;3.50;;;;;;;26.91;31.88;99351.38;4455582;32;20101;-87
2022/05/09 10:55:13;;;;;;;10.93;4.18;;;;;;;26.92;30.46;99347.69;4471066;32;20141;-90
2022/05/09 10:57:46;;;;;;;10.88;4.07;;;;;;;26.81;29.47;99348.88;4470892;32;20137;-90
2022/05/09 11:00:19;;;;;;;12.77;3.85;;;;;;;26.39;30.76;99353.56;4443841;32;20164;-87
2022/05/09 11:02:53;;;;;;;10.98;4.93;;;;;;;26.56;31.10;99358.91;4456691;32;20108;-88
2022/05/09 11:05:19;;;;;;;9.35;3.85;;;;;;;26.42;31.49;99349.66;4470787;32;20391;-88
2022/05/09 11:07:52;;;;;;;10.20;4.15;;;;;;;26.65;30.38;99342.53;4456629;32;20092;-86
2022/05/09 11:10:56;;;;;;;10.30;4.30;;;;;;;26.90;30.52;99345.16;4456729;32;20103;-88
2022/05/09 11:13:27;;;;;;;11.50;3.92;;;;;;;26.58;30.83;99341.53;4409299;32;20098;-88
2022/05/09 11:15:58;;;;;;;8.40;4.00;;;;;;;26.89;30.92;99340.78;4418501;32;20136;-81
2022/05/09 11:18:45;;;;;;;9.55;4.10;;;;;;;27.18;29.94;99340.13;4433318;32;20112;-82
2022/05/09 11:21:29;;;;;;;11.18;4.65;;;;;;;26.78;29.22;99333.88;4437473;32;20468;-82
2022/05/09 11:24:22;;;;;;;10.68;4.72;;;;;;;26.95;29.21;99329.25;4421852;32;20751;-81
2022/05/09 11:26:57;;;;;;;10.88;4.80;;;;;;;27.00;29.47;99331.41;4422324;32;20374;-81
2022/05/09 11:29:35;;;;;;;9.27;4.60;;;;;;;26.94;29.03;99329.41;4421666;32;20090;-81
2022/05/09 11:32:21;;;;;;;8.95;4.10;;;;;;;26.83;28.61;99326.09;4409964;32;20460;-81
2022/05/09 11:35:01;;;;;;;9.52;3.70;;;;;;;27.25;27.52;99310.50;4421273;32;20113;-81
2022/05/09 11:37:38;;;;;;;10.10;4.50;;;;;;;27.33;26.60;99307.75;4437253;32;20119;-81
2022/05/09 11:40:26;;;;;;;9.30;4.25;;;;;;;27.24;26.81;99300.69;4437351;32;20074;-84
2022/05/09 11:45:47;;;;;;;8.38;4.03;;;;;;;27.25;25.53;99297.84;4438230;32;20593;-84
2022/05/09 11:48:50;;;;;;;9.52;3.70;;;;;;;27.15;27.83;99293.66;4448787;32;20118;-84
2022/05/09 11:51:50;;;;;;;8.40;3.70;;;;;;;27.20;27.04;99299.37;4487337;32;20109;-84
2022/05/09 11:54:18;;;;;;;7.40;3.30;;;;;;;26.66;27.75;99308.25;4487120;32;20119;-84
2022/05/09 11:56:47;;;;;;;8.95;3.70;;;;;;;26.80;26.27;99315.63;4473678;32;20135;-91
2022/05/09 11:59:20;;;;;;;9.50;3.90;;;;;;;26.82;25.96;99310.88;4487580;32;20160;-88